Time;durP1;ratioP1;P1;durP2;ratioP2;P2;SDS_P1;SDS_P2;PMS_P1;PMS_P2;Temp;Humidity;BMP_temperature;BMP_pressure;BME280_temperature;BME280_humidity;BME280_pressure;Samples;Min_cycle;Max_cycle;Signal;HPM_P1;HPM_P2
2021/11/21 00:03:07;;;;;;;0.20;0.10;;;13.70;99.90;;;;;;20733364;28;20696;-76
2021/11/21 00:13:11;;;;;;;0.20;0.00;;;13.60;99.90;;;;;;20733599;28;20218;-75
2021/11/21 00:23:19;;;;;;;0.20;0.10;;;13.40;99.90;;;;;;20748403;28;20576;-73
2021/11/21 00:33:22;;;;;;;0.20;0.10;;;13.50;99.90;;;;;;20729901;28;20322;-74
2021/11/21 00:43:27;;;;;;;0.20;0.10;;;13.50;99.90;;;;;;20747088;28;20202;-72
2021/11/21 00:53:32;;;;;;;0.20;0.00;;;13.50;99.90;;;;;;20746462;28;20228;-74
2021/11/21 01:03:37;;;;;;;0.20;0.10;;;13.40;99.90;;;;;;20726761;28;20227;-73
2021/11/21 01:13:41;;;;;;;0.20;0.10;;;13.50;99.90;;;;;;20737027;28;20770;-74
2021/11/21 01:23:47;;;;;;;0.20;0.10;;;13.60;99.90;;;;;;20724679;28;20588;-72
2021/11/21 01:33:50;;;;;;;0.20;0.00;;;13.60;99.90;;;;;;20737749;28;20222;-72
2021/11/21 01:43:56;;;;;;;0.20;0.10;;;13.70;99.90;;;;;;20725418;28;20204;-73
2021/11/21 01:53:59;;;;;;;0.20;0.10;;;13.50;99.90;;;;;;20660747;28;20242;-74
2021/11/21 02:04:06;;;;;;;0.20;0.10;;;13.50;99.90;;;;;;20770044;23;20230;-74
2021/11/21 02:14:09;;;;;;;0.40;0.40;;;13.40;99.90;;;;;;20773678;28;20264;-74
2021/11/21 02:24:15;;;;;;;0.20;0.10;;;13.40;99.90;;;;;;20821761;28;20202;-73
2021/11/21 02:34:18;;;;;;;0.20;0.10;;;13.30;99.90;;;;;;20821617;28;20232;-73
2021/11/21 02:44:26;;;;;;;0.20;0.10;;;13.40;99.90;;;;;;20792470;28;20213;-72
2021/11/21 02:54:30;;;;;;;0.20;0.10;;;13.40;99.90;;;;;;20736814;28;20324;-73
2021/11/21 03:04:35;;;;;;;0.20;0.10;;;13.30;99.90;;;;;;20789869;23;20237;-72
2021/11/21 03:14:38;;;;;;;0.20;0.10;;;13.40;99.90;;;;;;20795096;28;20323;-73
2021/11/21 03:24:45;;;;;;;0.20;0.00;;;13.30;99.90;;;;;;20818521;28;20229;-72
2021/11/21 03:34:49;;;;;;;0.20;0.00;;;13.40;99.90;;;;;;20818267;28;20250;-72
2021/11/21 03:44:54;;;;;;;0.20;0.10;;;13.50;99.90;;;;;;20817941;28;20288;-72
2021/11/21 03:54:58;;;;;;;0.20;0.10;;;13.50;99.90;;;;;;20797330;28;20574;-72
2021/11/21 04:05:03;;;;;;;0.20;0.10;;;13.50;99.90;;;;;;20758687;28;20257;-71
2021/11/21 04:15:07;;;;;;;0.20;0.10;;;13.40;99.90;;;;;;20805174;28;20232;-72
2021/11/21 04:25:13;;;;;;;0.20;0.10;;;13.30;99.90;;;;;;20774350;28;20210;-71
2021/11/21 04:35:19;;;;;;;0.20;0.10;;;13.30;99.90;;;;;;20783637;28;20230;-72
2021/11/21 04:45:24;;;;;;;0.20;0.20;;;13.30;99.90;;;;;;20776344;28;20691;-72
2021/11/21 04:55:28;;;;;;;0.20;0.10;;;13.50;99.90;;;;;;20756372;28;20227;-72
2021/11/21 05:05:33;;;;;;;0.20;0.10;;;13.50;99.90;;;;;;20790766;28;20286;-72
2021/11/21 05:15:37;;;;;;;0.20;0.03;;;13.40;99.90;;;;;;20853673;28;20222;-72
2021/11/21 05:25:42;;;;;;;0.20;0.10;;;13.50;99.90;;;;;;20824979;28;20217;-73
2021/11/21 05:35:46;;;;;;;0.20;0.20;;;13.40;99.90;;;;;;20825717;28;20583;-71
2021/11/21 05:45:51;;;;;;;0.20;0.00;;;13.30;99.90;;;;;;20826856;28;20229;-71
2021/11/21 05:55:54;;;;;;;0.20;0.10;;;13.30;99.90;;;;;;20824389;28;20675;-72
2021/11/21 06:05:59;;;;;;;0.20;0.10;;;13.30;99.90;;;;;;20806582;28;20240;-72
2021/11/21 06:16:03;;;;;;;0.20;0.10;;;13.30;99.90;;;;;;20823414;28;20226;-70
2021/11/21 06:26:08;;;;;;;0.20;0.10;;;13.30;99.90;;;;;;20821439;28;20290;-72
2021/11/21 06:36:11;;;;;;;0.20;0.10;;;13.30;99.90;;;;;;20821738;28;20229;-73
2021/11/21 06:46:16;;;;;;;0.47;0.47;;;13.10;99.90;;;;;;20802491;28;20666;-71
2021/11/21 06:56:20;;;;;;;0.20;0.00;;;13.10;99.90;;;;;;20820162;28;20312;-72
2021/11/21 07:06:34;;;;;;;0.20;0.10;;;13.10;99.90;;;;;;20819795;28;20230;-72
2021/11/21 07:16:38;;;;;;;0.20;0.10;;;13.00;99.90;;;;;;20819038;28;20249;-73
2021/11/21 07:26:44;;;;;;;0.20;0.10;;;13.00;99.90;;;;;;20799813;28;20532;-73
2021/11/21 07:36:47;;;;;;;0.20;0.10;;;13.10;99.90;;;;;;20818312;28;20234;-72
2021/11/21 07:46:52;;;;;;;0.20;0.10;;;13.10;99.90;;;;;;20817078;28;20272;-73
2021/11/21 07:56:56;;;;;;;0.20;0.10;;;13.00;99.90;;;;;;20816952;28;20316;-72
2021/11/21 08:07:01;;;;;;;0.20;0.10;;;13.10;99.90;;;;;;20798139;28;20656;-71
2021/11/21 08:17:05;;;;;;;1.07;0.67;;;13.00;99.90;;;;;;20815170;28;20866;-71
2021/11/21 08:27:12;;;;;;;0.20;0.10;;;12.90;99.90;;;;;;20815838;28;20233;-73
2021/11/21 08:37:16;;;;;;;0.20;0.10;;;13.00;99.90;;;;;;20818102;28;20300;-72
2021/11/21 08:47:23;;;;;;;0.20;0.13;;;13.10;99.90;;;;;;20794425;28;20656;-73
2021/11/21 08:57:27;;;;;;;0.20;0.10;;;13.10;99.90;;;;;;20827585;28;20698;-73
2021/11/21 09:07:32;;;;;;;0.20;0.10;;;13.20;99.90;;;;;;20858449;28;20221;-73
2021/11/21 09:17:36;;;;;;;0.20;0.10;;;13.30;99.90;;;;;;20835991;28;20226;-72
2021/11/21 09:27:41;;;;;;;0.20;0.10;;;13.50;99.90;;;;;;20876640;28;20193;-72
2021/11/21 09:37:45;;;;;;;0.20;0.20;;;13.70;99.90;;;;;;20885415;28;20228;-71
2021/11/21 09:47:57;;;;;;;0.20;0.00;;;13.90;99.90;;;;;;20846889;28;20690;-73
2021/11/21 09:58:04;;;;;;;0.20;0.10;;;14.60;99.90;;;;;;20845686;28;20309;-72
2021/11/21 10:08:12;;;;;;;0.20;0.00;;;15.20;99.90;;;;;;20848333;28;20687;-71
2021/11/21 10:18:17;;;;;;;0.20;0.10;;;15.90;99.90;;;;;;20856144;28;20308;-70
2021/11/21 10:28:27;;;;;;;0.20;0.00;;;16.70;99.90;;;;;;20872892;28;20548;-70
2021/11/21 10:38:39;;;;;;;0.20;0.10;;;18.10;99.90;;;;;;20900805;28;20307;-71
2021/11/21 10:48:45;;;;;;;0.20;0.00;;;18.80;99.90;;;;;;20878378;28;20232;-71
2021/11/21 10:58:50;;;;;;;0.20;0.10;;;19.00;99.90;;;;;;20856160;28;20531;-72
2021/11/21 11:09:19;;;;;;;0.20;0.20;;;19.40;99.90;;;;;;20849604;28;20273;-71
2021/11/21 11:19:26;;;;;;;0.20;0.10;;;19.30;99.90;;;;;;20834920;28;20227;-72
2021/11/21 11:29:38;;;;;;;0.20;0.03;;;19.60;99.90;;;;;;20854884;28;20204;-73
2021/11/21 11:39:45;;;;;;;0.30;0.30;;;19.30;99.90;;;;;;20830688;28;20225;-72
2021/11/21 11:49:50;;;;;;;0.20;0.10;;;20.10;99.90;;;;;;20847310;28;20198;-71
2021/11/21 11:59:54;;;;;;;0.20;0.10;;;19.90;99.90;;;;;;20827146;28;20249;-70
2021/11/21 12:10:02;;;;;;;0.20;0.20;;;20.70;99.90;;;;;;20795890;28;20243;-73
2021/11/21 12:20:07;;;;;;;0.20;0.00;;;20.80;99.90;;;;;;20827649;28;20396;-70
2021/11/21 12:30:21;;;;;;;1.90;1.80;;;19.40;99.90;;;;;;20826018;28;20247;-72
2021/11/21 12:40:28;;;;;;;0.20;0.00;;;19.30;99.90;;;;;;20831089;28;20261;-72
2021/11/21 12:50:36;;;;;;;0.20;0.00;;;20.60;99.90;;;;;;20823573;28;20668;-72
2021/11/21 13:00:40;;;;;;;0.20;0.00;;;19.20;99.90;;;;;;20822845;28;20585;-75
2021/11/21 13:10:46;;;;;;;0.20;0.10;;;17.80;99.90;;;;;;20803751;28;20210;-73
2021/11/21 13:20:52;;;;;;;0.20;0.00;;;19.00;99.90;;;;;;20823145;28;20225;-75
2021/11/21 13:31:00;;;;;;;0.20;0.00;;;19.70;99.90;;;;;;20804776;28;20615;-72
2021/11/21 13:41:05;;;;;;;0.20;0.00;;;19.20;99.90;;;;;;20822384;28;20241;-73
2021/11/21 13:51:24;;;;;;;0.20;0.10;;;18.90;99.90;;;;;;20799468;28;20256;-73
2021/11/21 14:01:27;;;;;;;0.50;0.50;;;18.80;99.90;;;;;;20821576;28;20229;-71
2021/11/21 14:11:37;;;;;;;0.20;0.00;;;18.00;99.90;;;;;;20816926;28;20608;-73
2021/11/21 14:21:41;;;;;;;0.30;0.30;;;18.20;99.90;;;;;;20797835;28;20267;-74
2021/11/21 14:31:46;;;;;;;0.30;0.30;;;17.90;99.90;;;;;;20815587;28;20252;-72
2021/11/21 14:41:50;;;;;;;0.20;0.10;;;18.10;99.90;;;;;;20815023;28;20210;-72
2021/11/21 14:51:56;;;;;;;0.20;0.20;;;18.50;99.90;;;;;;20797142;28;20695;-72
2021/11/21 15:02:00;;;;;;;0.20;0.00;;;18.10;99.90;;;;;;20829829;28;20546;-73
2021/11/21 15:12:07;;;;;;;0.20;0.10;;;19.10;99.90;;;;;;20816511;28;20233;-73
2021/11/21 15:22:12;;;;;;;0.20;0.00;;;18.60;99.90;;;;;;20810750;28;20206;-73
2021/11/21 15:32:18;;;;;;;0.20;0.10;;;17.90;99.90;;;;;;20812653;28;20237;-71
2021/11/21 15:42:21;;;;;;;0.20;0.10;;;17.60;99.90;;;;;;20794952;28;20190;-72
2021/11/21 15:52:26;;;;;;;0.20;0.20;;;17.20;99.90;;;;;;20825561;28;20515;-71
2021/11/21 16:02:30;;;;;;;0.20;0.10;;;16.70;99.90;;;;;;20827989;28;20321;-72
2021/11/21 16:12:35;;;;;;;0.20;0.10;;;16.30;99.90;;;;;;20828220;28;20246;-70
2021/11/21 16:22:40;;;;;;;0.20;0.10;;;15.80;99.90;;;;;;20863963;28;20207;-72
2021/11/21 16:32:46;;;;;;;0.20;0.00;;;15.90;99.90;;;;;;20878169;28;20210;-72
2021/11/21 16:42:51;;;;;;;0.20;0.00;;;15.40;99.90;;;;;;20829155;28;20204;-71
2021/11/21 16:53:00;;;;;;;0.20;0.10;;;15.20;99.90;;;;;;20822612;28;20288;-69
2021/11/21 17:03:04;;;;;;;0.20;0.20;;;14.90;99.90;;;;;;20821609;28;20666;-72
2021/11/21 17:13:09;;;;;;;0.20;0.00;;;14.60;99.90;;;;;;20822745;28;20229;-73
2021/11/21 17:23:13;;;;;;;0.20;0.00;;;14.30;99.90;;;;;;20821598;28;20198;-72
2021/11/21 17:33:18;;;;;;;0.20;0.10;;;14.00;99.90;;;;;;20818367;28;20218;-71
2021/11/21 17:43:22;;;;;;;0.20;0.07;;;13.80;99.90;;;;;;20821112;28;20226;-73
2021/11/21 17:53:27;;;;;;;0.20;0.00;;;13.80;99.90;;;;;;20821093;28;20233;-71
2021/11/21 18:03:31;;;;;;;0.20;0.10;;;13.70;99.90;;;;;;20801880;28;20692;-73
2021/11/21 18:13:37;;;;;;;0.20;0.10;;;13.70;99.90;;;;;;20818454;28;20214;-71
2021/11/21 18:23:42;;;;;;;0.20;0.00;;;13.70;99.90;;;;;;20829290;28;20297;-70
2021/11/21 18:33:47;;;;;;;0.20;0.00;;;13.80;99.90;;;;;;20816777;28;20812;-70
2021/11/21 18:43:51;;;;;;;0.53;0.53;;;13.70;99.90;;;;;;20816326;28;20674;-70
2021/11/21 18:53:57;;;;;;;0.20;0.10;;;13.80;99.90;;;;;;20798508;28;20627;-70
2021/11/21 19:04:01;;;;;;;0.20;0.20;;;13.80;99.90;;;;;;20815217;28;20292;-70
2021/11/21 19:14:06;;;;;;;0.20;0.00;;;13.70;99.90;;;;;;20828305;28;20252;-71
2021/11/21 19:24:10;;;;;;;0.20;0.00;;;13.60;99.90;;;;;;20886400;28;20194;-69
2021/11/21 19:34:15;;;;;;;0.97;0.97;;;13.60;99.90;;;;;;20895767;28;20312;-70
2021/11/21 19:44:20;;;;;;;0.20;0.00;;;13.50;99.90;;;;;;20896674;28;20566;-70
2021/11/21 19:54:26;;;;;;;0.20;0.10;;;13.70;99.90;;;;;;20895816;28;20318;-71
2021/11/21 20:04:31;;;;;;;0.20;0.10;;;13.80;99.90;;;;;;20895042;28;20221;-74
2021/11/21 20:14:37;;;;;;;0.20;0.00;;;13.90;99.90;;;;;;20838415;28;20226;-72
2021/11/21 20:24:41;;;;;;;0.20;0.00;;;13.80;99.90;;;;;;20799219;28;20606;-72
2021/11/21 20:34:46;;;;;;;0.20;0.00;;;13.70;99.90;;;;;;20800840;28;20280;-70
2021/11/21 20:44:51;;;;;;;0.20;0.10;;;13.60;99.90;;;;;;20743113;28;20195;-72
2021/11/21 20:54:57;;;;;;;0.20;0.00;;;13.40;99.90;;;;;;20866601;28;20335;-70
2021/11/21 21:05:01;;;;;;;0.20;0.10;;;13.10;99.90;;;;;;20818194;28;20230;-72
2021/11/21 21:15:08;;;;;;;0.20;0.10;;;12.90;99.90;;;;;;20822872;28;20222;-70
2021/11/21 21:25:13;;;;;;;0.20;0.10;;;12.80;99.90;;;;;;20804867;28;20674;-70
2021/11/21 21:35:18;;;;;;;0.20;0.10;;;12.50;99.90;;;;;;20821463;28;20690;-70
2021/11/21 21:45:22;;;;;;;0.27;0.27;;;12.50;99.90;;;;;;20820610;28;20218;-69
2021/11/21 21:55:33;;;;;;;0.20;0.10;;;12.40;99.90;;;;;;20802924;28;20699;-70
2021/11/21 22:05:39;;;;;;;0.20;0.10;;;12.20;99.90;;;;;;20818269;28;20237;-69
2021/11/21 22:15:45;;;;;;;0.20;0.10;;;12.20;99.90;;;;;;20814584;28;20257;-72
2021/11/21 22:25:49;;;;;;;0.20;0.10;;;12.20;99.90;;;;;;20817016;28;20288;-71
2021/11/21 22:35:54;;;;;;;0.20;0.10;;;12.30;99.90;;;;;;20799844;28;20225;-76
2021/11/21 22:45:58;;;;;;;0.20;0.10;;;12.40;99.90;;;;;;20843945;28;20197;-73
2021/11/21 22:56:04;;;;;;;0.20;0.10;;;12.60;99.90;;;;;;20899744;28;20723;-73
2021/11/21 23:06:07;;;;;;;0.20;0.10;;;12.80;99.90;;;;;;20900453;28;20256;-72
2021/11/21 23:16:13;;;;;;;0.20;0.10;;;12.80;99.90;;;;;;20837874;28;20268;-73
2021/11/21 23:26:16;;;;;;;0.20;0.00;;;12.80;99.90;;;;;;20817666;28;20437;-71
2021/11/21 23:36:21;;;;;;;0.20;0.10;;;13.20;99.90;;;;;;20819125;28;20229;-72
2021/11/21 23:46:25;;;;;;;0.20;0.10;;;13.00;99.90;;;;;;20818595;28;20198;-72
2021/11/21 23:56:30;;;;;;;0.20;0.10;;;13.10;99.90;;;;;;20817461;28;20249;-72
